Time;durP1;ratioP1;P1;durP2;ratioP2;P2;SDS_P1;SDS_P2;PMS_P1;PMS_P2;Temp;Humidity;BMP_temperature;BMP_pressure;BME280_temperature;BME280_humidity;BME280_pressure;Samples;Min_cycle;Max_cycle;Signal;HPM_P1;HPM_P2
2022/12/23 00:01:15;;;;;;;36.05;15.88;;;9.10;99.90;;;;;;5114686;27;20122;-89
2022/12/23 00:03:42;;;;;;;28.67;15.35;;;9.10;99.90;;;;;;5097477;28;20043;-89
2022/12/23 00:06:13;;;;;;;28.67;15.35;;;9.10;99.90;;;;;;5095423;28;20404;-89
2022/12/23 00:08:41;;;;;;;29.20;15.15;;;9.10;99.90;;;;;;5094548;28;20845;-89
2022/12/23 00:11:18;;;;;;;33.28;16.23;;;9.00;99.90;;;;;;5112499;28;20396;-89
2022/12/23 00:16:28;;;;;;;28.40;14.55;;;9.10;99.90;;;;;;5107284;27;20412;-90
2022/12/23 00:18:54;;;;;;;41.08;15.30;;;9.00;99.90;;;;;;5114641;27;20035;-89
2022/12/23 00:21:21;;;;;;;39.53;16.38;;;9.10;99.90;;;;;;5104075;28;20108;-90
2022/12/23 00:23:48;;;;;;;31.55;15.25;;;9.00;99.90;;;;;;5093732;28;20093;-90
2022/12/23 00:26:16;;;;;;;48.30;16.25;;;9.10;99.90;;;;;;5094571;28;20084;-90
2022/12/23 00:28:42;;;;;;;36.58;13.15;;;9.10;99.90;;;;;;5093996;28;20127;-90
2022/12/23 00:31:08;;;;;;;36.60;14.57;;;9.10;99.90;;;;;;5094024;28;20122;-89
2022/12/23 00:33:36;;;;;;;40.25;15.27;;;9.10;99.90;;;;;;5097081;27;20043;-90
2022/12/23 00:36:09;;;;;;;32.10;14.48;;;9.10;99.90;;;;;;5114308;27;20092;-90
2022/12/23 00:44:04;;;;;;;30.10;13.20;;;9.10;99.90;;;;;;5113264;27;20485;-89
2022/12/23 00:46:30;;;;;;;24.13;13.07;;;9.10;99.90;;;;;;5105404;27;20054;-89
2022/12/23 00:51:39;;;;;;;29.45;12.38;;;9.10;99.90;;;;;;5113761;27;20038;-90
2022/12/23 00:54:05;;;;;;;24.17;12.38;;;9.10;99.90;;;;;;5113432;27;20054;-89
2022/12/23 00:56:31;;;;;;;28.38;13.73;;;9.10;99.90;;;;;;5113934;27;20031;-89
2022/12/23 00:58:57;;;;;;;28.65;13.32;;;9.20;99.90;;;;;;5115073;27;20043;-89
2022/12/23 01:06:55;;;;;;;21.10;11.52;;;9.20;99.90;;;;;;5117464;27;20135;-90
2022/12/23 01:09:21;;;;;;;21.40;11.68;;;9.20;99.90;;;;;;5131109;27;20119;-90
2022/12/23 01:11:47;;;;;;;22.05;12.52;;;9.30;99.90;;;;;;5108727;27;20114;-90
2022/12/23 01:14:12;;;;;;;21.83;11.73;;;9.20;99.90;;;;;;5093259;28;20065;-90
2022/12/23 01:16:39;;;;;;;20.23;10.82;;;9.20;99.90;;;;;;5111313;28;20066;-90
2022/12/23 01:19:06;;;;;;;21.92;12.23;;;9.30;99.90;;;;;;5107729;27;20036;-90
2022/12/23 01:21:32;;;;;;;19.60;11.05;;;9.30;99.90;;;;;;5131837;27;20111;-89
2022/12/23 01:23:58;;;;;;;18.98;11.23;;;9.30;99.90;;;;;;5112748;27;20393;-89
2022/12/23 01:26:24;;;;;;;20.35;11.25;;;9.30;99.90;;;;;;5114429;27;20047;-90
2022/12/23 01:28:54;;;;;;;21.77;10.65;;;9.30;99.90;;;;;;5101528;28;20073;-90
2022/12/23 01:31:20;;;;;;;18.52;9.32;;;9.30;99.90;;;;;;5093105;28;20044;-89
2022/12/23 01:33:45;;;;;;;18.25;9.85;;;9.30;99.90;;;;;;5075696;28;20197;-89
2022/12/23 01:36:11;;;;;;;20.02;10.25;;;9.40;99.90;;;;;;5101140;28;20035;-90
2022/12/23 01:38:36;;;;;;;19.58;10.80;;;9.40;99.90;;;;;;5111095;28;20035;-89
2022/12/23 01:41:02;;;;;;;21.65;12.63;;;9.40;99.90;;;;;;5110451;28;20431;-89
2022/12/23 01:43:46;;;;;;;20.40;11.88;;;9.40;99.90;;;;;;5103307;27;20507;-90
2022/12/23 01:46:12;;;;;;;22.10;12.93;;;9.40;99.90;;;;;;5114332;27;20494;-89
2022/12/23 01:48:39;;;;;;;21.55;12.73;;;9.30;99.90;;;;;;5112489;27;20043;-89
2022/12/23 01:51:10;;;;;;;21.77;13.05;;;9.30;99.90;;;;;;5110934;28;20059;-89
2022/12/23 01:53:46;;;;;;;19.33;12.25;;;9.40;99.90;;;;;;5110719;28;20138;-89
2022/12/23 01:56:14;;;;;;;21.05;12.98;;;9.30;99.90;;;;;;5107076;27;20065;-89
2022/12/23 01:58:45;;;;;;;21.90;13.18;;;9.40;99.90;;;;;;5113081;27;20031;-89
2022/12/23 02:04:00;;;;;;;19.55;11.43;;;9.40;99.90;;;;;;5110008;28;20048;-90
2022/12/23 02:09:39;;;;;;;15.38;10.13;;;9.30;99.90;;;;;;5113026;28;20046;-89
2022/12/23 02:12:04;;;;;;;15.40;8.63;;;9.40;99.90;;;;;;5112721;27;20047;-89
2022/12/23 02:17:57;;;;;;;16.80;8.73;;;9.40;99.90;;;;;;5131176;27;20038;-90
2022/12/23 02:20:45;;;;;;;13.68;7.97;;;9.40;99.90;;;;;;5095834;28;20043;-90
2022/12/23 02:23:41;;;;;;;13.32;7.30;;;9.40;99.90;;;;;;5091130;28;20523;-89
2022/12/23 02:26:30;;;;;;;12.57;6.45;;;9.40;99.90;;;;;;5103175;28;20043;-90
2022/12/23 02:29:17;;;;;;;12.52;7.05;;;9.40;99.90;;;;;;5113039;28;20054;-90
2022/12/23 02:32:06;;;;;;;15.47;7.83;;;9.40;99.90;;;;;;5112485;28;20085;-90
2022/12/23 02:34:53;;;;;;;12.20;6.78;;;9.40;99.90;;;;;;5124115;28;20074;-90
2022/12/23 02:37:46;;;;;;;13.25;7.05;;;9.40;99.90;;;;;;5112613;28;20036;-90
2022/12/23 02:40:24;;;;;;;12.80;6.60;;;9.40;99.90;;;;;;5100631;28;20047;-89
2022/12/23 02:43:16;;;;;;;13.40;7.32;;;9.40;99.90;;;;;;5091583;28;20047;-90
2022/12/23 02:45:51;;;;;;;13.13;7.07;;;9.40;99.90;;;;;;5119078;28;20046;-90
2022/12/23 02:48:33;;;;;;;12.73;6.82;;;9.40;99.90;;;;;;5092365;28;20313;-90
2022/12/23 02:51:01;;;;;;;12.87;7.13;;;9.40;99.90;;;;;;5096300;28;20053;-90
2022/12/23 02:53:38;;;;;;;13.35;7.05;;;9.40;99.90;;;;;;5130097;28;20039;-90
2022/12/23 02:56:06;;;;;;;15.05;8.32;;;9.40;99.90;;;;;;5112742;28;20465;-90
2022/12/23 02:58:38;;;;;;;14.48;7.85;;;9.40;99.90;;;;;;5111815;28;20454;-88
2022/12/23 03:01:06;;;;;;;15.57;9.05;;;9.40;99.90;;;;;;5111015;28;20039;-89
2022/12/23 03:03:34;;;;;;;16.27;9.55;;;9.40;99.90;;;;;;5090623;28;20048;-89
2022/12/23 03:06:04;;;;;;;17.23;9.85;;;9.40;99.90;;;;;;5092004;28;20047;-89
2022/12/23 03:08:38;;;;;;;18.58;11.35;;;9.40;99.90;;;;;;5091336;28;20071;-89
2022/12/23 03:11:12;;;;;;;18.35;11.20;;;9.40;99.90;;;;;;5091320;28;20035;-88
2022/12/23 03:14:18;;;;;;;17.42;10.10;;;9.30;99.90;;;;;;5109102;28;20529;-89
2022/12/23 03:17:12;;;;;;;17.92;10.80;;;9.30;99.90;;;;;;5092066;28;20079;-90
2022/12/23 03:20:07;;;;;;;19.05;11.63;;;9.30;99.90;;;;;;5094671;28;20518;-89
2022/12/23 03:23:00;;;;;;;19.80;11.30;;;9.30;99.90;;;;;;5111777;28;20163;-89
2022/12/23 03:25:36;;;;;;;20.85;11.57;;;9.30;99.90;;;;;;5095530;28;20631;-89
2022/12/23 03:28:10;;;;;;;20.08;12.10;;;9.20;99.90;;;;;;5109209;27;20042;-90
2022/12/23 03:30:39;;;;;;;20.35;11.70;;;9.20;99.90;;;;;;5133722;27;20124;-89
2022/12/23 03:33:15;;;;;;;18.95;11.18;;;9.20;99.90;;;;;;5109423;28;20047;-89
2022/12/23 03:35:50;;;;;;;21.90;12.40;;;9.20;99.90;;;;;;5095661;28;20040;-89
2022/12/23 03:38:17;;;;;;;21.08;12.45;;;9.20;99.90;;;;;;5105500;27;20553;-89
2022/12/23 03:40:52;;;;;;;19.42;11.75;;;9.20;99.90;;;;;;5115494;27;20108;-89
2022/12/23 03:43:40;;;;;;;23.52;13.57;;;9.20;99.90;;;;;;5113858;27;20055;-89
2022/12/23 03:46:13;;;;;;;20.85;11.57;;;9.20;99.90;;;;;;5095698;28;20381;-90
2022/12/23 03:48:46;;;;;;;22.00;12.43;;;9.20;99.90;;;;;;5095015;28;20050;-89
2022/12/23 03:51:24;;;;;;;22.13;12.93;;;9.20;99.90;;;;;;5094172;28;20063;-90
2022/12/23 03:54:03;;;;;;;20.40;11.82;;;9.10;99.90;;;;;;5094105;28;20083;-89
2022/12/23 03:56:39;;;;;;;22.42;13.10;;;9.10;99.90;;;;;;5112541;28;20125;-89
2022/12/23 03:59:18;;;;;;;21.92;12.65;;;9.10;99.90;;;;;;5094698;28;20040;-89
2022/12/23 04:01:59;;;;;;;24.27;13.00;;;9.10;99.90;;;;;;5094585;28;20492;-89
2022/12/23 04:04:37;;;;;;;19.90;11.65;;;9.10;99.90;;;;;;5112229;28;20039;-89
2022/12/23 04:07:09;;;;;;;24.38;12.65;;;9.10;99.90;;;;;;5094829;28;20047;-89
2022/12/23 04:09:36;;;;;;;20.77;11.57;;;9.10;99.90;;;;;;5109207;27;20079;-89
2022/12/23 04:12:02;;;;;;;21.30;12.73;;;9.10;99.90;;;;;;5114612;27;20134;-89
2022/12/23 04:14:28;;;;;;;22.40;12.50;;;9.00;99.90;;;;;;5114209;27;20455;-89
2022/12/23 04:16:57;;;;;;;21.40;12.18;;;9.00;99.90;;;;;;5114676;27;20047;-89
2022/12/23 04:19:23;;;;;;;20.80;11.55;;;9.00;99.90;;;;;;5130378;27;20096;-90
2022/12/23 04:21:48;;;;;;;22.45;11.75;;;9.00;99.90;;;;;;5099369;28;20044;-89
2022/12/23 04:24:14;;;;;;;23.08;13.07;;;9.00;99.90;;;;;;5093641;28;20043;-89
2022/12/23 04:26:40;;;;;;;24.55;13.15;;;9.00;99.90;;;;;;5094058;28;20027;-89
2022/12/23 04:29:05;;;;;;;21.67;12.00;;;9.00;99.90;;;;;;5094282;28;20071;-89
2022/12/23 04:31:31;;;;;;;19.92;10.70;;;9.00;99.90;;;;;;5093406;28;20505;-89
2022/12/23 04:33:56;;;;;;;22.40;11.90;;;9.00;99.90;;;;;;5108815;27;20042;-89
2022/12/23 04:36:22;;;;;;;25.75;11.63;;;9.00;99.90;;;;;;5114613;27;20035;-89
2022/12/23 04:38:48;;;;;;;21.73;10.60;;;9.00;99.90;;;;;;5105572;28;20035;-89
2022/12/23 04:41:13;;;;;;;25.27;11.40;;;9.00;99.90;;;;;;5093512;28;20114;-89
2022/12/23 04:43:39;;;;;;;24.85;12.30;;;9.00;99.90;;;;;;5094762;27;20063;-89
2022/12/23 04:46:04;;;;;;;23.67;11.93;;;9.00;99.90;;;;;;5114073;27;20161;-89
2022/12/23 04:48:30;;;;;;;28.33;12.73;;;9.00;99.90;;;;;;5114892;27;20070;-90
2022/12/23 04:50:56;;;;;;;28.52;12.70;;;9.00;99.90;;;;;;5104947;27;20043;-90
2022/12/23 04:53:21;;;;;;;27.67;12.82;;;9.00;99.90;;;;;;5113229;27;20071;-89
2022/12/23 04:55:50;;;;;;;30.50;13.38;;;9.00;99.90;;;;;;5113769;27;20039;-90
2022/12/23 04:58:16;;;;;;;29.98;12.73;;;9.00;99.90;;;;;;5093270;28;20043;-90
2022/12/23 05:00:42;;;;;;;26.58;13.02;;;9.00;99.90;;;;;;5111252;28;20046;-89
2022/12/23 05:03:07;;;;;;;32.67;13.70;;;9.00;99.90;;;;;;5093228;28;20039;-89
2022/12/23 05:05:33;;;;;;;28.70;13.35;;;9.00;99.90;;;;;;5107706;27;20507;-89
2022/12/23 05:08:05;;;;;;;30.50;13.90;;;9.00;99.90;;;;;;5114568;27;20049;-89
2022/12/23 05:10:31;;;;;;;29.38;12.60;;;9.00;99.90;;;;;;5109770;28;20035;-89
2022/12/23 05:12:57;;;;;;;28.58;13.43;;;9.00;99.90;;;;;;5076064;28;20039;-89
2022/12/23 05:15:23;;;;;;;26.00;11.95;;;9.00;99.90;;;;;;5094123;28;20079;-90
2022/12/23 05:17:48;;;;;;;25.95;11.45;;;9.00;99.90;;;;;;5092700;28;20611;-89
2022/12/23 05:20:14;;;;;;;29.02;12.65;;;9.00;99.90;;;;;;5093164;28;20112;-89
2022/12/23 05:22:39;;;;;;;30.17;12.32;;;9.00;99.90;;;;;;5100486;28;20564;-89
2022/12/23 05:25:05;;;;;;;25.17;11.27;;;9.00;99.90;;;;;;5093236;28;20043;-89
2022/12/23 05:27:31;;;;;;;27.63;11.70;;;8.90;99.90;;;;;;5101555;27;20049;-89
2022/12/23 05:29:57;;;;;;;43.55;12.43;;;8.90;99.90;;;;;;5113556;27;20043;-89
2022/12/23 05:32:22;;;;;;;27.98;11.52;;;8.90;99.90;;;;;;5113007;27;20046;-89
2022/12/23 05:34:48;;;;;;;24.95;11.70;;;8.90;99.90;;;;;;5113261;27;20447;-89
2022/12/23 05:37:13;;;;;;;21.38;10.65;;;8.90;99.90;;;;;;5114072;27;20039;-89
2022/12/23 05:39:39;;;;;;;21.08;10.40;;;8.80;99.90;;;;;;5131171;27;20039;-90
2022/12/23 05:42:05;;;;;;;23.92;11.63;;;8.80;99.90;;;;;;5103029;27;20043;-90
2022/12/23 05:44:30;;;;;;;24.73;10.63;;;8.90;99.90;;;;;;5112956;27;20420;-89
2022/12/23 05:46:56;;;;;;;23.25;10.88;;;8.80;99.90;;;;;;5131429;27;20091;-89
2022/12/23 05:49:21;;;;;;;28.58;11.75;;;8.80;99.90;;;;;;5113693;27;20051;-89
2022/12/23 05:51:47;;;;;;;22.88;10.90;;;8.80;99.90;;;;;;5107527;28;20040;-89
2022/12/23 05:54:13;;;;;;;22.70;11.32;;;8.80;99.90;;;;;;5109227;27;20565;-90
2022/12/23 05:56:39;;;;;;;24.45;11.05;;;8.80;99.90;;;;;;5132011;27;20041;-90
2022/12/23 05:59:04;;;;;;;34.08;12.20;;;8.80;99.90;;;;;;5104353;28;20040;-89
2022/12/23 06:01:30;;;;;;;28.35;12.43;;;8.80;99.90;;;;;;5092071;28;20123;-89
2022/12/23 06:03:55;;;;;;;24.73;12.20;;;8.80;99.90;;;;;;5091262;28;20054;-89
2022/12/23 06:06:21;;;;;;;27.77;12.48;;;8.70;99.90;;;;;;5104956;27;20521;-89
2022/12/23 06:08:47;;;;;;;30.70;13.02;;;8.70;99.90;;;;;;5113276;27;20054;-89
2022/12/23 06:11:12;;;;;;;29.90;12.85;;;8.70;99.90;;;;;;5104433;28;20114;-89
2022/12/23 06:13:38;;;;;;;32.80;12.48;;;8.70;99.90;;;;;;5090294;28;20044;-89
2022/12/23 06:16:04;;;;;;;36.00;13.00;;;8.70;99.90;;;;;;5092295;28;20123;-89
2022/12/23 06:18:29;;;;;;;29.38;12.55;;;8.70;99.90;;;;;;5126747;27;20148;-88
2022/12/23 06:20:55;;;;;;;26.38;11.75;;;8.70;99.90;;;;;;5111483;27;20664;-89
2022/12/23 06:23:21;;;;;;;25.27;10.75;;;8.70;99.90;;;;;;5128816;27;20084;-88
2022/12/23 06:25:46;;;;;;;29.40;11.35;;;8.60;99.90;;;;;;5093915;28;20054;-89
2022/12/23 06:28:12;;;;;;;62.38;11.55;;;8.60;99.90;;;;;;5111749;28;20499;-89
2022/12/23 06:30:37;;;;;;;37.67;11.05;;;8.70;99.90;;;;;;5095239;28;20119;-89
2022/12/23 06:33:03;;;;;;;31.05;12.90;;;8.70;99.90;;;;;;5090820;28;20040;-89
2022/12/23 06:35:28;;;;;;;49.80;12.02;;;8.70;99.90;;;;;;5100032;28;20039;-88
2022/12/23 06:37:54;;;;;;;37.33;13.00;;;8.60;99.90;;;;;;5091814;28;20104;-90
2022/12/23 06:40:20;;;;;;;62.55;12.52;;;8.60;99.90;;;;;;5097450;28;20063;-89
2022/12/23 06:42:46;;;;;;;30.40;12.25;;;8.60;99.90;;;;;;5110497;28;20556;-88
2022/12/23 06:45:12;;;;;;;30.13;12.25;;;8.60;99.90;;;;;;5111341;28;20043;-88
2022/12/23 06:47:37;;;;;;;77.07;13.90;;;8.60;99.90;;;;;;5111193;28;20118;-87
2022/12/23 06:50:04;;;;;;;69.60;11.43;;;8.60;99.90;;;;;;5112166;28;20055;-88
2022/12/23 06:52:29;;;;;;;78.43;13.10;;;8.60;99.90;;;;;;5111099;27;20043;-89
2022/12/23 06:54:55;;;;;;;50.15;10.98;;;8.60;99.90;;;;;;5115128;27;20039;-90
2022/12/23 06:57:21;;;;;;;39.50;9.82;;;8.50;99.90;;;;;;5115631;27;20074;-89
2022/12/23 06:59:46;;;;;;;62.25;11.02;;;8.50;99.90;;;;;;5105075;28;20161;-89
2022/12/23 07:02:12;;;;;;;47.97;11.25;;;8.50;99.90;;;;;;5094768;28;20068;-90
2022/12/23 07:04:38;;;;;;;81.30;13.45;;;8.50;99.90;;;;;;5095400;27;20039;-89
2022/12/23 07:07:03;;;;;;;55.17;11.63;;;8.40;99.90;;;;;;5115383;27;20035;-89
2022/12/23 07:09:29;;;;;;;69.35;12.93;;;8.40;99.90;;;;;;5134270;27;20101;-90
2022/12/23 07:11:54;;;;;;;75.03;11.77;;;8.40;99.90;;;;;;5098445;27;20043;-89
2022/12/23 07:14:20;;;;;;;91.40;11.57;;;8.40;99.90;;;;;;5115859;27;20039;-89
2022/12/23 07:16:46;;;;;;;76.22;11.68;;;8.40;99.90;;;;;;5101673;28;20063;-89
2022/12/23 07:19:11;;;;;;;47.28;10.48;;;8.40;99.90;;;;;;5101593;27;20172;-88
2022/12/23 07:21:37;;;;;;;77.50;11.57;;;8.30;99.90;;;;;;5114704;27;20038;-89
2022/12/23 07:24:04;;;;;;;57.58;10.95;;;8.30;99.90;;;;;;5113720;27;20043;-90
2022/12/23 07:26:29;;;;;;;96.88;11.05;;;8.30;99.90;;;;;;5115148;27;20034;-89
2022/12/23 07:28:55;;;;;;;51.38;10.07;;;8.30;99.90;;;;;;5116095;27;20381;-89
2022/12/23 07:31:20;;;;;;;41.58;10.93;;;8.30;99.90;;;;;;5094719;28;20040;-89
2022/12/23 07:33:46;;;;;;;49.38;10.68;;;8.30;99.90;;;;;;5111084;28;20140;-89
2022/12/23 07:36:12;;;;;;;69.78;12.38;;;8.30;99.90;;;;;;5125843;27;20627;-89
2022/12/23 07:38:37;;;;;;;43.15;10.70;;;8.30;99.90;;;;;;5131022;27;20035;-88
2022/12/23 07:41:03;;;;;;;80.50;11.48;;;8.30;99.90;;;;;;5112948;27;20039;-90
2022/12/23 07:43:29;;;;;;;34.35;9.55;;;8.30;99.90;;;;;;5109894;28;20035;-89
2022/12/23 07:45:54;;;;;;;31.98;10.00;;;8.30;99.90;;;;;;5092344;28;20071;-89
2022/12/23 07:48:20;;;;;;;45.47;11.25;;;8.30;99.90;;;;;;5108633;27;20039;-89
2022/12/23 07:50:45;;;;;;;54.92;9.85;;;8.30;99.90;;;;;;5132573;27;20106;-90
2022/12/23 07:53:11;;;;;;;57.67;10.50;;;8.30;99.90;;;;;;5100570;28;20569;-89
2022/12/23 07:55:36;;;;;;;36.13;9.27;;;8.30;99.90;;;;;;5094451;28;20038;-90
2022/12/23 07:58:02;;;;;;;53.85;10.30;;;8.30;99.90;;;;;;5094966;28;20095;-89
2022/12/23 08:00:28;;;;;;;49.45;10.52;;;8.20;99.90;;;;;;5101890;28;20062;-90
2022/12/23 08:02:53;;;;;;;45.50;10.18;;;8.20;99.90;;;;;;5093477;28;20130;-90
2022/12/23 08:05:19;;;;;;;31.83;10.35;;;8.20;99.90;;;;;;5092314;28;20679;-89
2022/12/23 08:07:45;;;;;;;23.55;10.50;;;8.20;99.90;;;;;;5094059;28;20043;-89
2022/12/23 08:10:11;;;;;;;21.70;9.40;;;8.20;99.90;;;;;;5094564;28;20050;-88
2022/12/23 08:12:36;;;;;;;20.75;9.75;;;8.20;99.90;;;;;;5111529;28;20050;-89
2022/12/23 08:15:02;;;;;;;27.17;9.75;;;8.30;99.90;;;;;;5094101;28;20039;-89
2022/12/23 08:17:29;;;;;;;26.60;10.50;;;8.30;99.90;;;;;;5098176;27;20035;-89
2022/12/23 08:19:55;;;;;;;20.42;9.70;;;8.30;99.90;;;;;;5113294;27;20149;-89
2022/12/23 08:22:21;;;;;;;19.67;8.43;;;8.30;99.90;;;;;;5113499;27;20043;-89
2022/12/23 08:24:47;;;;;;;25.17;9.13;;;8.30;99.90;;;;;;5113226;27;20042;-90
2022/12/23 08:27:15;;;;;;;30.42;10.02;;;8.30;99.90;;;;;;5132455;27;20515;-89
2022/12/23 08:29:41;;;;;;;20.92;9.95;;;8.30;99.90;;;;;;5111686;27;20066;-90
2022/12/23 08:32:06;;;;;;;19.70;9.20;;;8.30;99.90;;;;;;5092763;28;20079;-89
2022/12/23 08:34:32;;;;;;;34.63;10.07;;;8.30;99.90;;;;;;5093447;28;20071;-90
2022/12/23 08:36:58;;;;;;;36.70;10.43;;;8.30;99.90;;;;;;5111173;27;20042;-89
2022/12/23 08:39:23;;;;;;;64.95;12.15;;;8.30;99.90;;;;;;5113827;27;20092;-89
2022/12/23 08:41:49;;;;;;;34.30;9.40;;;8.30;99.90;;;;;;5109223;28;20046;-89
2022/12/23 08:44:15;;;;;;;24.42;9.52;;;8.30;99.90;;;;;;5107979;27;20374;-89
2022/12/23 08:46:42;;;;;;;59.20;10.07;;;8.30;99.90;;;;;;5113354;27;20043;-90
2022/12/23 08:49:09;;;;;;;31.45;9.38;;;8.30;99.90;;;;;;5113578;27;20038;-89
2022/12/23 08:51:36;;;;;;;34.05;9.27;;;8.30;99.90;;;;;;5132043;27;20038;-88
2022/12/23 08:54:02;;;;;;;22.88;8.98;;;8.30;99.90;;;;;;5111355;27;20561;-89
2022/12/23 08:56:34;;;;;;;39.00;9.73;;;8.30;99.90;;;;;;5114223;27;20044;-90
2022/12/23 08:59:00;;;;;;;20.08;8.50;;;8.30;99.90;;;;;;5111704;27;20118;-90
2022/12/23 09:01:29;;;;;;;19.52;8.57;;;8.30;99.90;;;;;;5103173;28;20043;-90
2022/12/23 09:03:55;;;;;;;28.33;8.57;;;8.30;99.90;;;;;;5092314;28;20036;-89
2022/12/23 09:06:26;;;;;;;25.75;7.97;;;8.30;99.90;;;;;;5110515;28;20554;-89
2022/12/23 09:08:52;;;;;;;18.35;8.70;;;8.30;99.90;;;;;;5120479;27;20400;-89
2022/12/23 09:11:21;;;;;;;17.40;7.85;;;8.30;99.90;;;;;;5114302;27;20507;-90
2022/12/23 09:13:47;;;;;;;16.17;7.78;;;8.40;99.90;;;;;;5112170;27;20062;-89
2022/12/23 09:16:13;;;;;;;17.92;8.45;;;8.40;99.90;;;;;;5113355;27;20527;-89
2022/12/23 09:18:40;;;;;;;22.80;7.70;;;8.40;99.90;;;;;;5113338;27;20074;-89
2022/12/23 09:21:09;;;;;;;16.17;7.80;;;8.40;99.90;;;;;;5122470;27;20095;-90
2022/12/23 09:23:36;;;;;;;17.05;7.03;;;8.40;99.90;;;;;;5112155;27;20396;-89
2022/12/23 09:26:04;;;;;;;19.85;8.65;;;8.50;99.90;;;;;;5112420;27;20055;-90
2022/12/23 09:28:29;;;;;;;19.20;8.40;;;8.50;99.90;;;;;;5113353;27;20105;-89
2022/12/23 09:30:55;;;;;;;22.55;10.75;;;8.60;99.90;;;;;;5113698;27;20498;-90
2022/12/23 09:33:21;;;;;;;20.10;9.65;;;8.60;99.90;;;;;;5111761;27;20138;-90
2022/12/23 09:35:46;;;;;;;18.73;9.88;;;8.60;99.90;;;;;;5112651;27;20047;-89
2022/12/23 09:38:12;;;;;;;20.70;9.77;;;8.60;99.90;;;;;;5131107;27;20035;-89
2022/12/23 09:40:39;;;;;;;18.60;8.45;;;8.70;99.90;;;;;;5112806;27;20035;-89
2022/12/23 09:43:55;;;;;;;19.63;8.93;;;8.70;99.90;;;;;;5122350;27;20042;-89
2022/12/23 09:46:24;;;;;;;18.85;8.45;;;8.70;99.90;;;;;;4990663;28;20064;-88
2022/12/23 09:49:01;;;;;;;15.45;7.53;;;8.70;99.90;;;;;;4977919;28;20054;-90
2022/12/23 09:51:29;;;;;;;17.35;7.47;;;8.80;99.90;;;;;;5015858;28;20045;-89
2022/12/23 09:54:15;;;;;;;17.17;6.60;;;8.80;99.90;;;;;;5026904;28;20079;-89
2022/12/23 09:56:46;;;;;;;14.45;6.28;;;8.80;99.90;;;;;;5012138;28;20085;-89
2022/12/23 09:59:41;;;;;;;14.20;7.15;;;8.80;99.90;;;;;;5009525;28;20077;-90
2022/12/23 10:02:15;;;;;;;16.30;7.05;;;8.80;99.90;;;;;;5008074;28;20065;-89
2022/12/23 10:04:58;;;;;;;15.45;7.68;;;8.80;99.90;;;;;;5008747;28;20049;-90
2022/12/23 10:07:38;;;;;;;15.07;7.35;;;8.80;99.90;;;;;;5010486;28;20041;-89
2022/12/23 10:10:13;;;;;;;14.43;7.13;;;8.80;99.90;;;;;;5010762;28;20053;-89
2022/12/23 10:12:45;;;;;;;15.63;7.28;;;8.80;99.90;;;;;;5010534;28;20045;-90
2022/12/23 10:15:28;;;;;;;14.77;6.95;;;8.80;99.90;;;;;;5010294;28;20053;-90
2022/12/23 10:17:57;;;;;;;15.52;7.57;;;8.80;99.90;;;;;;5011381;28;20732;-89
2022/12/23 10:20:36;;;;;;;16.60;7.57;;;8.80;99.90;;;;;;5010302;28;20768;-90
2022/12/23 10:23:03;;;;;;;16.25;7.57;;;8.80;99.90;;;;;;5117689;27;20043;-90
2022/12/23 10:25:43;;;;;;;15.43;7.28;;;8.80;99.90;;;;;;5112098;28;20047;-89
2022/12/23 10:28:10;;;;;;;19.90;8.75;;;8.80;99.90;;;;;;5099157;28;20055;-90
2022/12/23 10:30:39;;;;;;;20.95;9.35;;;8.90;99.90;;;;;;5098187;27;20055;-90
2022/12/23 10:33:34;;;;;;;19.45;9.75;;;8.90;99.90;;;;;;5116719;27;20641;-90
2022/12/23 10:36:11;;;;;;;19.27;7.65;;;8.90;99.90;;;;;;5121625;27;20039;-90
2022/12/23 10:39:01;;;;;;;19.15;8.80;;;8.90;99.90;;;;;;5120993;27;20106;-90
2022/12/23 10:41:32;;;;;;;18.13;7.80;;;8.90;99.90;;;;;;5136410;27;20035;-90
2022/12/23 10:44:23;;;;;;;21.02;9.88;;;8.90;99.90;;;;;;5140565;27;20126;-89
2022/12/23 10:46:56;;;;;;;17.92;8.88;;;9.00;99.90;;;;;;5118835;27;20120;-89
2022/12/23 10:49:30;;;;;;;18.02;8.85;;;9.00;99.90;;;;;;5120053;27;20039;-90
2022/12/23 10:52:00;;;;;;;19.17;8.93;;;9.00;99.90;;;;;;5124029;27;20810;-90
2022/12/23 10:54:33;;;;;;;17.90;8.88;;;9.00;99.90;;;;;;5117936;27;20075;-90
2022/12/23 10:57:00;;;;;;;19.90;7.95;;;9.00;99.90;;;;;;5118421;27;20522;-90
2022/12/23 10:59:30;;;;;;;18.42;9.25;;;9.00;99.90;;;;;;5119799;27;20043;-89
2022/12/23 11:02:48;;;;;;;19.02;8.45;;;9.10;99.90;;;;;;5124645;27;20105;-90
2022/12/23 11:05:20;;;;;;;19.75;9.32;;;9.10;99.90;;;;;;5099629;28;20039;-89
2022/12/23 11:07:46;;;;;;;18.90;8.57;;;9.10;99.90;;;;;;5109514;28;20074;-89
2022/12/23 11:10:19;;;;;;;20.08;9.73;;;9.10;99.90;;;;;;5109212;28;20069;-90
2022/12/23 11:12:48;;;;;;;22.65;10.35;;;9.10;99.90;;;;;;5090910;28;20493;-89
2022/12/23 11:15:34;;;;;;;21.80;9.07;;;9.10;99.90;;;;;;5091167;28;20035;-89
2022/12/23 11:18:15;;;;;;;20.70;10.07;;;9.20;99.90;;;;;;5106730;28;20039;-89
2022/12/23 11:20:43;;;;;;;22.48;10.00;;;9.20;99.90;;;;;;5111608;28;20046;-89
2022/12/23 11:23:26;;;;;;;20.77;9.85;;;9.20;99.90;;;;;;5105779;28;20046;-90
2022/12/23 11:26:00;;;;;;;21.83;9.13;;;9.20;99.90;;;;;;5109139;28;20043;-89
2022/12/23 11:28:27;;;;;;;22.38;9.93;;;9.20;99.90;;;;;;5111231;28;20046;-89
2022/12/23 11:31:08;;;;;;;22.75;11.15;;;9.20;99.90;;;;;;5112181;28;20047;-89
2022/12/23 11:33:37;;;;;;;24.33;12.10;;;9.20;99.90;;;;;;5130045;27;20027;-90
2022/12/23 11:36:11;;;;;;;26.00;12.57;;;9.20;99.90;;;;;;5138782;27;20023;-90
2022/12/23 11:38:55;;;;;;;22.85;10.48;;;9.20;99.90;;;;;;5117052;27;20036;-89
2022/12/23 11:41:25;;;;;;;25.17;12.55;;;9.30;99.90;;;;;;5122905;27;20037;-89
2022/12/23 11:43:58;;;;;;;22.90;10.68;;;9.30;99.90;;;;;;5134771;27;20043;-89
2022/12/23 11:46:30;;;;;;;25.73;12.05;;;9.30;99.90;;;;;;5107567;27;20043;-89
2022/12/23 11:49:27;;;;;;;24.17;14.17;;;9.30;99.90;;;;;;5133296;27;20107;-90
2022/12/23 11:52:00;;;;;;;26.08;11.70;;;9.30;99.90;;;;;;5093999;27;20055;-90
2022/12/23 11:54:26;;;;;;;22.38;10.25;;;9.30;99.90;;;;;;5114024;27;20047;-89
2022/12/23 11:56:53;;;;;;;23.00;13.15;;;9.40;99.90;;;;;;5117256;27;20051;-91
2022/12/23 11:59:35;;;;;;;25.08;12.63;;;9.30;99.90;;;;;;5116509;27;20117;-89
2022/12/23 12:02:09;;;;;;;26.35;11.98;;;9.40;99.90;;;;;;5114427;27;20081;-89
2022/12/23 12:04:36;;;;;;;23.40;11.80;;;9.40;99.90;;;;;;5106148;28;20509;-90
2022/12/23 12:07:04;;;;;;;23.90;10.73;;;9.30;99.90;;;;;;5113280;27;20041;-90
2022/12/23 12:09:31;;;;;;;20.60;9.93;;;9.30;99.90;;;;;;5113933;27;20031;-90
2022/12/23 12:12:03;;;;;;;21.77;11.13;;;9.40;99.90;;;;;;5097754;28;20039;-90
2022/12/23 12:14:35;;;;;;;20.33;9.73;;;9.40;99.90;;;;;;5093065;28;20126;-90
2022/12/23 12:17:19;;;;;;;17.83;8.98;;;9.40;99.90;;;;;;5093315;28;20041;-89
2022/12/23 12:20:13;;;;;;;20.60;8.48;;;9.40;99.90;;;;;;5096985;27;20031;-89
2022/12/23 12:22:45;;;;;;;19.85;8.43;;;9.40;99.90;;;;;;5108309;28;20051;-89
2022/12/23 12:25:18;;;;;;;20.70;8.93;;;9.40;99.90;;;;;;5096463;27;20108;-90
2022/12/23 12:27:57;;;;;;;20.00;8.18;;;9.40;99.90;;;;;;5080916;28;20221;-90
2022/12/23 12:30:31;;;;;;;21.58;8.95;;;9.40;99.90;;;;;;5094043;27;20521;-90
2022/12/23 12:33:07;;;;;;;23.73;9.50;;;9.40;99.90;;;;;;5113792;27;20366;-90
2022/12/23 12:35:50;;;;;;;22.40;9.65;;;9.40;99.90;;;;;;5119326;27;20044;-90
2022/12/23 12:38:29;;;;;;;21.67;9.48;;;9.40;99.90;;;;;;5122147;27;20042;-90
2022/12/23 12:41:12;;;;;;;20.65;9.13;;;9.40;99.90;;;;;;5119664;27;20039;-91
2022/12/23 12:43:46;;;;;;;18.55;8.40;;;9.40;99.90;;;;;;5118742;27;20091;-90
2022/12/23 12:46:27;;;;;;;22.98;9.60;;;9.40;99.90;;;;;;5140949;27;20050;-90
2022/12/23 12:49:22;;;;;;;21.30;9.00;;;9.40;99.90;;;;;;5122093;27;20515;-90
2022/12/23 12:51:57;;;;;;;22.48;8.52;;;9.40;99.90;;;;;;5120219;27;20050;-90
2022/12/23 12:54:51;;;;;;;21.25;9.07;;;9.40;99.90;;;;;;5120749;27;20043;-90
2022/12/23 12:57:19;;;;;;;24.17;9.75;;;9.30;99.90;;;;;;5121101;27;20488;-90
2022/12/23 12:59:48;;;;;;;18.77;8.70;;;9.40;99.90;;;;;;5122254;27;20496;-89
2022/12/23 13:02:54;;;;;;;20.75;8.73;;;9.40;99.90;;;;;;5139642;27;20058;-90
2022/12/23 13:05:45;;;;;;;22.20;9.13;;;9.40;99.90;;;;;;5123252;27;20092;-90
2022/12/23 13:08:20;;;;;;;20.40;8.53;;;9.30;99.90;;;;;;5091172;28;20135;-89
2022/12/23 13:11:15;;;;;;;19.83;8.43;;;9.30;99.90;;;;;;5109955;27;20058;-89
2022/12/23 13:14:25;;;;;;;18.08;8.80;;;9.30;99.90;;;;;;5120835;27;20051;-89
2022/12/23 13:17:03;;;;;;;18.38;8.93;;;9.30;99.90;;;;;;5031314;28;20126;-89
2022/12/23 13:19:33;;;;;;;16.90;8.50;;;9.30;99.90;;;;;;5032012;28;20044;-90
2022/12/23 13:22:23;;;;;;;18.25;8.32;;;9.30;99.90;;;;;;5027594;28;20458;-89
2022/12/23 13:25:21;;;;;;;20.70;8.75;;;9.30;99.90;;;;;;5044342;28;20056;-89
2022/12/23 13:28:07;;;;;;;21.20;9.27;;;9.30;99.90;;;;;;5049846;28;20059;-88